sensor_id;sensor_type;location;lat;lon;timestamp;P1;durP1;ratioP1;P2;durP2;ratioP2
62848;SDS011;48941;49.516;8.286;2022-11-04T00:01:30;1.42;;;1.33;;
62848;SDS011;48941;49.516;8.286;2022-11-04T00:03:58;1.40;;;1.30;;
62848;SDS011;48941;49.516;8.286;2022-11-04T00:06:28;1.77;;;1.40;;
62848;SDS011;48941;49.516;8.286;2022-11-04T00:08:56;2.17;;;1.35;;
62848;SDS011;48941;49.516;8.286;2022-11-04T00:11:25;1.35;;;1.20;;
62848;SDS011;48941;49.516;8.286;2022-11-04T00:14:12;1.70;;;1.27;;
62848;SDS011;48941;49.516;8.286;2022-11-04T00:16:40;1.60;;;1.17;;
62848;SDS011;48941;49.516;8.286;2022-11-04T00:19:26;1.67;;;1.15;;
62848;SDS011;48941;49.516;8.286;2022-11-04T00:21:55;1.40;;;1.30;;
62848;SDS011;48941;49.516;8.286;2022-11-04T00:24:40;1.23;;;1.13;;
62848;SDS011;48941;49.516;8.286;2022-11-04T00:27:25;1.80;;;1.13;;
62848;SDS011;48941;49.516;8.286;2022-11-04T00:30:25;1.75;;;1.00;;
62848;SDS011;48941;49.516;8.286;2022-11-04T00:32:53;1.13;;;1.00;;
62848;SDS011;48941;49.516;8.286;2022-11-04T00:35:38;2.28;;;1.00;;
62848;SDS011;48941;49.516;8.286;2022-11-04T00:38:08;2.03;;;1.20;;
62848;SDS011;48941;49.516;8.286;2022-11-04T00:40:36;1.13;;;1.02;;
62848;SDS011;48941;49.516;8.286;2022-11-04T00:43:04;1.05;;;1.05;;
62848;SDS011;48941;49.516;8.286;2022-11-04T00:45:31;1.00;;;1.00;;
62848;SDS011;48941;49.516;8.286;2022-11-04T00:47:59;1.60;;;1.27;;
62848;SDS011;48941;49.516;8.286;2022-11-04T00:50:27;1.30;;;1.20;;
62848;SDS011;48941;49.516;8.286;2022-11-04T00:52:57;1.02;;;1.00;;
62848;SDS011;48941;49.516;8.286;2022-11-04T00:55:27;1.38;;;1.20;;
62848;SDS011;48941;49.516;8.286;2022-11-04T00:57:55;1.30;;;1.20;;
62848;SDS011;48941;49.516;8.286;2022-11-04T01:00:24;2.85;;;1.42;;
62848;SDS011;48941;49.516;8.286;2022-11-04T01:02:52;1.95;;;1.40;;
62848;SDS011;48941;49.516;8.286;2022-11-04T01:05:20;1.20;;;1.10;;
62848;SDS011;48941;49.516;8.286;2022-11-04T01:07:48;2.03;;;1.38;;
62848;SDS011;48941;49.516;8.286;2022-11-04T01:10:16;1.67;;;1.55;;
62848;SDS011;48941;49.516;8.286;2022-11-04T01:12:45;1.92;;;1.27;;
62848;SDS011;48941;49.516;8.286;2022-11-04T01:15:13;2.95;;;1.70;;
62848;SDS011;48941;49.516;8.286;2022-11-04T01:17:40;1.55;;;1.33;;
62848;SDS011;48941;49.516;8.286;2022-11-04T01:20:09;2.83;;;1.60;;
62848;SDS011;48941;49.516;8.286;2022-11-04T01:22:38;2.50;;;1.35;;
62848;SDS011;48941;49.516;8.286;2022-11-04T01:25:06;1.98;;;1.30;;
62848;SDS011;48941;49.516;8.286;2022-11-04T01:27:35;1.30;;;1.20;;
62848;SDS011;48941;49.516;8.286;2022-11-04T01:30:05;2.92;;;1.60;;
62848;SDS011;48941;49.516;8.286;2022-11-04T01:32:34;1.50;;;1.40;;
62848;SDS011;48941;49.516;8.286;2022-11-04T01:35:02;3.00;;;1.60;;
62848;SDS011;48941;49.516;8.286;2022-11-04T01:37:30;3.35;;;1.35;;
62848;SDS011;48941;49.516;8.286;2022-11-04T01:39:58;3.75;;;1.95;;
62848;SDS011;48941;49.516;8.286;2022-11-04T01:42:26;2.65;;;1.50;;
62848;SDS011;48941;49.516;8.286;2022-11-04T01:44:55;3.78;;;1.65;;
62848;SDS011;48941;49.516;8.286;2022-11-04T01:47:29;3.92;;;1.40;;
62848;SDS011;48941;49.516;8.286;2022-11-04T01:50:03;1.98;;;1.30;;
62848;SDS011;48941;49.516;8.286;2022-11-04T01:52:35;5.40;;;1.50;;
62848;SDS011;48941;49.516;8.286;2022-11-04T01:55:06;6.55;;;1.42;;
62848;SDS011;48941;49.516;8.286;2022-11-04T01:57:40;6.65;;;1.58;;
62848;SDS011;48941;49.516;8.286;2022-11-04T02:00:10;2.13;;;1.27;;
62848;SDS011;48941;49.516;8.286;2022-11-04T02:02:45;3.85;;;1.60;;
62848;SDS011;48941;49.516;8.286;2022-11-04T02:05:20;1.85;;;1.40;;
62848;SDS011;48941;49.516;8.286;2022-11-04T02:07:48;1.40;;;1.30;;
62848;SDS011;48941;49.516;8.286;2022-11-04T02:10:21;1.30;;;1.20;;
62848;SDS011;48941;49.516;8.286;2022-11-04T02:12:51;4.88;;;2.00;;
62848;SDS011;48941;49.516;8.286;2022-11-04T02:15:20;1.92;;;1.40;;
62848;SDS011;48941;49.516;8.286;2022-11-04T02:18:09;5.80;;;1.85;;
62848;SDS011;48941;49.516;8.286;2022-11-04T02:24:13;2.90;;;1.35;;
62848;SDS011;48941;49.516;8.286;2022-11-04T02:29:52;4.05;;;1.80;;
62848;SDS011;48941;49.516;8.286;2022-11-04T02:32:33;3.07;;;1.70;;
62848;SDS011;48941;49.516;8.286;2022-11-04T02:35:21;3.78;;;1.70;;
62848;SDS011;48941;49.516;8.286;2022-11-04T02:37:53;6.35;;;1.70;;
62848;SDS011;48941;49.516;8.286;2022-11-04T02:40:31;5.10;;;2.17;;
62848;SDS011;48941;49.516;8.286;2022-11-04T02:43:09;4.32;;;1.50;;
62848;SDS011;48941;49.516;8.286;2022-11-04T02:45:44;3.70;;;1.50;;
62848;SDS011;48941;49.516;8.286;2022-11-04T02:48:16;8.32;;;1.80;;
62848;SDS011;48941;49.516;8.286;2022-11-04T02:50:50;4.20;;;1.45;;
62848;SDS011;48941;49.516;8.286;2022-11-04T02:53:23;7.63;;;1.50;;
62848;SDS011;48941;49.516;8.286;2022-11-04T02:55:57;3.28;;;1.38;;
62848;SDS011;48941;49.516;8.286;2022-11-04T02:58:29;10.30;;;1.98;;
62848;SDS011;48941;49.516;8.286;2022-11-04T03:01:01;2.20;;;1.48;;
62848;SDS011;48941;49.516;8.286;2022-11-04T03:03:32;5.38;;;1.50;;
62848;SDS011;48941;49.516;8.286;2022-11-04T03:06:03;5.43;;;1.55;;
62848;SDS011;48941;49.516;8.286;2022-11-04T03:08:35;5.13;;;2.33;;
62848;SDS011;48941;49.516;8.286;2022-11-04T03:11:07;4.72;;;1.40;;
62848;SDS011;48941;49.516;8.286;2022-11-04T03:13:39;5.53;;;1.55;;
62848;SDS011;48941;49.516;8.286;2022-11-04T03:16:13;6.93;;;1.90;;
62848;SDS011;48941;49.516;8.286;2022-11-04T03:18:48;3.42;;;1.20;;
62848;SDS011;48941;49.516;8.286;2022-11-04T03:21:23;7.05;;;1.60;;
62848;SDS011;48941;49.516;8.286;2022-11-04T03:23:53;6.40;;;2.17;;
62848;SDS011;48941;49.516;8.286;2022-11-04T03:26:23;5.35;;;1.60;;
62848;SDS011;48941;49.516;8.286;2022-11-04T03:28:57;4.00;;;1.60;;
62848;SDS011;48941;49.516;8.286;2022-11-04T03:31:36;6.72;;;1.70;;
62848;SDS011;48941;49.516;8.286;2022-11-04T03:34:12;6.10;;;1.30;;
62848;SDS011;48941;49.516;8.286;2022-11-04T03:36:40;4.25;;;1.70;;
62848;SDS011;48941;49.516;8.286;2022-11-04T03:39:07;3.92;;;1.15;;
62848;SDS011;48941;49.516;8.286;2022-11-04T03:41:37;5.88;;;1.48;;
62848;SDS011;48941;49.516;8.286;2022-11-04T03:44:10;2.92;;;1.42;;
62848;SDS011;48941;49.516;8.286;2022-11-04T03:46:39;3.22;;;1.42;;
62848;SDS011;48941;49.516;8.286;2022-11-04T03:49:07;4.40;;;1.42;;
62848;SDS011;48941;49.516;8.286;2022-11-04T03:51:37;3.50;;;1.60;;
62848;SDS011;48941;49.516;8.286;2022-11-04T03:54:05;7.85;;;2.15;;
62848;SDS011;48941;49.516;8.286;2022-11-04T03:56:39;5.15;;;2.08;;
62848;SDS011;48941;49.516;8.286;2022-11-04T03:59:26;6.50;;;1.90;;
62848;SDS011;48941;49.516;8.286;2022-11-04T04:02:16;3.25;;;1.42;;
62848;SDS011;48941;49.516;8.286;2022-11-04T04:04:49;6.25;;;1.90;;
62848;SDS011;48941;49.516;8.286;2022-11-04T04:07:25;3.65;;;1.30;;
62848;SDS011;48941;49.516;8.286;2022-11-04T04:10:00;5.07;;;1.67;;
62848;SDS011;48941;49.516;8.286;2022-11-04T04:12:55;4.90;;;1.48;;
62848;SDS011;48941;49.516;8.286;2022-11-04T04:15:26;12.40;;;7.22;;
62848;SDS011;48941;49.516;8.286;2022-11-04T04:17:59;21.95;;;11.77;;
62848;SDS011;48941;49.516;8.286;2022-11-04T04:20:30;11.27;;;4.30;;
62848;SDS011;48941;49.516;8.286;2022-11-04T04:23:02;7.45;;;1.88;;
62848;SDS011;48941;49.516;8.286;2022-11-04T04:25:55;4.13;;;1.70;;
62848;SDS011;48941;49.516;8.286;2022-11-04T04:28:45;3.33;;;1.38;;
62848;SDS011;48941;49.516;8.286;2022-11-04T04:31:14;5.07;;;1.50;;
62848;SDS011;48941;49.516;8.286;2022-11-04T04:34:05;8.02;;;1.80;;
62848;SDS011;48941;49.516;8.286;2022-11-04T04:36:36;4.72;;;1.63;;
62848;SDS011;48941;49.516;8.286;2022-11-04T04:39:11;3.97;;;1.40;;
62848;SDS011;48941;49.516;8.286;2022-11-04T04:42:01;4.40;;;1.65;;
62848;SDS011;48941;49.516;8.286;2022-11-04T04:44:47;5.97;;;1.90;;
62848;SDS011;48941;49.516;8.286;2022-11-04T04:47:39;8.80;;;1.75;;
62848;SDS011;48941;49.516;8.286;2022-11-04T04:50:12;5.28;;;1.85;;
62848;SDS011;48941;49.516;8.286;2022-11-04T04:52:42;11.05;;;2.00;;
62848;SDS011;48941;49.516;8.286;2022-11-04T04:55:12;3.17;;;1.58;;
62848;SDS011;48941;49.516;8.286;2022-11-04T04:57:40;6.25;;;2.65;;
62848;SDS011;48941;49.516;8.286;2022-11-04T05:00:11;6.32;;;2.55;;
62848;SDS011;48941;49.516;8.286;2022-11-04T05:02:41;6.20;;;1.70;;
62848;SDS011;48941;49.516;8.286;2022-11-04T05:05:10;4.32;;;1.70;;
62848;SDS011;48941;49.516;8.286;2022-11-04T05:07:44;5.00;;;1.67;;
62848;SDS011;48941;49.516;8.286;2022-11-04T05:10:12;4.38;;;1.60;;
62848;SDS011;48941;49.516;8.286;2022-11-04T05:12:42;5.75;;;1.75;;
62848;SDS011;48941;49.516;8.286;2022-11-04T05:15:28;5.07;;;1.80;;
62848;SDS011;48941;49.516;8.286;2022-11-04T05:17:57;6.72;;;1.75;;
62848;SDS011;48941;49.516;8.286;2022-11-04T05:20:29;4.50;;;1.67;;
62848;SDS011;48941;49.516;8.286;2022-11-04T05:22:59;4.65;;;2.05;;
62848;SDS011;48941;49.516;8.286;2022-11-04T05:25:27;2.33;;;1.70;;
62848;SDS011;48941;49.516;8.286;2022-11-04T05:27:57;6.18;;;1.65;;
62848;SDS011;48941;49.516;8.286;2022-11-04T05:30:26;5.10;;;1.70;;
62848;SDS011;48941;49.516;8.286;2022-11-04T05:32:54;7.90;;;2.05;;
62848;SDS011;48941;49.516;8.286;2022-11-04T05:35:40;10.35;;;2.20;;
62848;SDS011;48941;49.516;8.286;2022-11-04T05:38:25;6.45;;;1.70;;
62848;SDS011;48941;49.516;8.286;2022-11-04T05:40:53;5.82;;;2.90;;
62848;SDS011;48941;49.516;8.286;2022-11-04T05:43:23;8.15;;;3.08;;
62848;SDS011;48941;49.516;8.286;2022-11-04T05:45:51;14.48;;;7.10;;
62848;SDS011;48941;49.516;8.286;2022-11-04T05:48:19;5.93;;;3.70;;
62848;SDS011;48941;49.516;8.286;2022-11-04T05:50:48;6.72;;;2.75;;
62848;SDS011;48941;49.516;8.286;2022-11-04T05:53:16;6.65;;;2.30;;
62848;SDS011;48941;49.516;8.286;2022-11-04T05:55:44;3.20;;;1.65;;
62848;SDS011;48941;49.516;8.286;2022-11-04T05:58:12;3.30;;;1.73;;
62848;SDS011;48941;49.516;8.286;2022-11-04T06:00:40;8.10;;;1.80;;
62848;SDS011;48941;49.516;8.286;2022-11-04T06:03:08;4.40;;;1.77;;
62848;SDS011;48941;49.516;8.286;2022-11-04T06:05:41;5.95;;;1.80;;
62848;SDS011;48941;49.516;8.286;2022-11-04T06:08:10;3.22;;;1.60;;
62848;SDS011;48941;49.516;8.286;2022-11-04T06:10:38;4.07;;;1.70;;
62848;SDS011;48941;49.516;8.286;2022-11-04T06:13:06;6.10;;;1.80;;
62848;SDS011;48941;49.516;8.286;2022-11-04T06:15:33;4.78;;;1.65;;
62848;SDS011;48941;49.516;8.286;2022-11-04T06:18:01;4.68;;;1.70;;
62848;SDS011;48941;49.516;8.286;2022-11-04T06:20:29;4.15;;;2.05;;
62848;SDS011;48941;49.516;8.286;2022-11-04T06:22:57;3.65;;;1.70;;
62848;SDS011;48941;49.516;8.286;2022-11-04T06:25:26;5.55;;;2.53;;
62848;SDS011;48941;49.516;8.286;2022-11-04T06:27:56;8.00;;;2.70;;
62848;SDS011;48941;49.516;8.286;2022-11-04T06:30:24;8.02;;;2.83;;
62848;SDS011;48941;49.516;8.286;2022-11-04T06:32:53;5.70;;;2.30;;
62848;SDS011;48941;49.516;8.286;2022-11-04T06:35:21;5.38;;;1.77;;
62848;SDS011;48941;49.516;8.286;2022-11-04T06:37:48;7.10;;;1.92;;
62848;SDS011;48941;49.516;8.286;2022-11-04T06:40:16;5.15;;;2.10;;
62848;SDS011;48941;49.516;8.286;2022-11-04T06:42:45;4.95;;;2.15;;
62848;SDS011;48941;49.516;8.286;2022-11-04T06:45:13;3.30;;;1.90;;
62848;SDS011;48941;49.516;8.286;2022-11-04T06:47:41;7.40;;;2.38;;
62848;SDS011;48941;49.516;8.286;2022-11-04T06:50:09;5.82;;;2.17;;
62848;SDS011;48941;49.516;8.286;2022-11-04T06:52:39;5.40;;;2.20;;
62848;SDS011;48941;49.516;8.286;2022-11-04T06:55:08;5.43;;;2.20;;
62848;SDS011;48941;49.516;8.286;2022-11-04T06:57:36;7.72;;;2.38;;
62848;SDS011;48941;49.516;8.286;2022-11-04T07:00:06;7.95;;;3.10;;
62848;SDS011;48941;49.516;8.286;2022-11-04T07:02:35;4.70;;;2.13;;
62848;SDS011;48941;49.516;8.286;2022-11-04T07:05:04;4.90;;;2.20;;
62848;SDS011;48941;49.516;8.286;2022-11-04T07:07:33;8.60;;;2.22;;
62848;SDS011;48941;49.516;8.286;2022-11-04T07:10:01;6.68;;;2.55;;
62848;SDS011;48941;49.516;8.286;2022-11-04T07:12:28;6.20;;;2.25;;
62848;SDS011;48941;49.516;8.286;2022-11-04T07:14:56;3.97;;;2.05;;
62848;SDS011;48941;49.516;8.286;2022-11-04T07:17:26;5.60;;;2.25;;
62848;SDS011;48941;49.516;8.286;2022-11-04T07:19:54;6.88;;;2.03;;
62848;SDS011;48941;49.516;8.286;2022-11-04T07:22:21;7.72;;;2.58;;
62848;SDS011;48941;49.516;8.286;2022-11-04T07:24:49;3.47;;;2.13;;
62848;SDS011;48941;49.516;8.286;2022-11-04T07:27:17;8.13;;;2.67;;
62848;SDS011;48941;49.516;8.286;2022-11-04T07:29:45;3.88;;;2.28;;
62848;SDS011;48941;49.516;8.286;2022-11-04T07:32:13;8.43;;;2.53;;
62848;SDS011;48941;49.516;8.286;2022-11-04T07:34:42;6.95;;;2.63;;
62848;SDS011;48941;49.516;8.286;2022-11-04T07:37:10;7.43;;;3.28;;
62848;SDS011;48941;49.516;8.286;2022-11-04T07:39:38;11.68;;;4.00;;
62848;SDS011;48941;49.516;8.286;2022-11-04T07:42:06;5.88;;;2.97;;
62848;SDS011;48941;49.516;8.286;2022-11-04T07:44:34;7.38;;;3.13;;
62848;SDS011;48941;49.516;8.286;2022-11-04T07:47:02;13.90;;;3.55;;
62848;SDS011;48941;49.516;8.286;2022-11-04T07:49:30;9.00;;;3.20;;
62848;SDS011;48941;49.516;8.286;2022-11-04T07:52:00;8.48;;;3.88;;
62848;SDS011;48941;49.516;8.286;2022-11-04T07:54:28;10.90;;;2.78;;
62848;SDS011;48941;49.516;8.286;2022-11-04T07:56:56;3.75;;;2.63;;
62848;SDS011;48941;49.516;8.286;2022-11-04T07:59:24;4.53;;;2.45;;
62848;SDS011;48941;49.516;8.286;2022-11-04T08:01:53;5.75;;;2.17;;
62848;SDS011;48941;49.516;8.286;2022-11-04T08:04:21;6.28;;;2.10;;
62848;SDS011;48941;49.516;8.286;2022-11-04T08:06:49;2.95;;;1.75;;
62848;SDS011;48941;49.516;8.286;2022-11-04T08:09:18;7.07;;;1.70;;
62848;SDS011;48941;49.516;8.286;2022-11-04T08:11:46;6.57;;;3.05;;
62848;SDS011;48941;49.516;8.286;2022-11-04T08:14:15;5.68;;;1.83;;
62848;SDS011;48941;49.516;8.286;2022-11-04T08:16:43;5.43;;;2.10;;
62848;SDS011;48941;49.516;8.286;2022-11-04T08:19:11;5.90;;;1.83;;
62848;SDS011;48941;49.516;8.286;2022-11-04T08:21:40;4.55;;;2.15;;
62848;SDS011;48941;49.516;8.286;2022-11-04T08:24:07;5.22;;;1.77;;
62848;SDS011;48941;49.516;8.286;2022-11-04T08:26:37;4.18;;;1.60;;
62848;SDS011;48941;49.516;8.286;2022-11-04T08:29:05;3.65;;;2.13;;
62848;SDS011;48941;49.516;8.286;2022-11-04T08:31:33;6.18;;;2.00;;
62848;SDS011;48941;49.516;8.286;2022-11-04T08:34:01;4.13;;;2.13;;
62848;SDS011;48941;49.516;8.286;2022-11-04T08:36:32;4.85;;;2.10;;
62848;SDS011;48941;49.516;8.286;2022-11-04T08:39:02;4.95;;;2.00;;
62848;SDS011;48941;49.516;8.286;2022-11-04T08:41:37;3.47;;;1.63;;
62848;SDS011;48941;49.516;8.286;2022-11-04T08:44:07;3.83;;;1.80;;
62848;SDS011;48941;49.516;8.286;2022-11-04T08:46:37;4.95;;;2.05;;
62848;SDS011;48941;49.516;8.286;2022-11-04T08:49:05;6.80;;;1.80;;
62848;SDS011;48941;49.516;8.286;2022-11-04T08:51:38;4.15;;;1.88;;
62848;SDS011;48941;49.516;8.286;2022-11-04T08:54:07;5.18;;;2.13;;
62848;SDS011;48941;49.516;8.286;2022-11-04T08:56:36;2.05;;;1.40;;
62848;SDS011;48941;49.516;8.286;2022-11-04T08:59:06;4.07;;;1.63;;
62848;SDS011;48941;49.516;8.286;2022-11-04T09:01:36;3.25;;;1.90;;
62848;SDS011;48941;49.516;8.286;2022-11-04T09:04:04;4.35;;;2.28;;
62848;SDS011;48941;49.516;8.286;2022-11-04T09:06:33;3.92;;;2.28;;
62848;SDS011;48941;49.516;8.286;2022-11-04T09:09:02;3.85;;;1.98;;
62848;SDS011;48941;49.516;8.286;2022-11-04T09:11:31;5.68;;;2.10;;
62848;SDS011;48941;49.516;8.286;2022-11-04T09:14:01;6.15;;;2.30;;
62848;SDS011;48941;49.516;8.286;2022-11-04T09:16:31;3.65;;;2.20;;
62848;SDS011;48941;49.516;8.286;2022-11-04T09:19:00;6.63;;;3.35;;
62848;SDS011;48941;49.516;8.286;2022-11-04T09:21:28;7.88;;;2.10;;
62848;SDS011;48941;49.516;8.286;2022-11-04T09:23:56;5.25;;;2.00;;
62848;SDS011;48941;49.516;8.286;2022-11-04T09:26:24;4.07;;;2.05;;
62848;SDS011;48941;49.516;8.286;2022-11-04T09:28:52;5.78;;;2.05;;
62848;SDS011;48941;49.516;8.286;2022-11-04T09:31:23;3.72;;;2.00;;
62848;SDS011;48941;49.516;8.286;2022-11-04T09:33:52;3.03;;;2.13;;
62848;SDS011;48941;49.516;8.286;2022-11-04T09:36:21;5.57;;;2.80;;
62848;SDS011;48941;49.516;8.286;2022-11-04T09:38:49;8.07;;;2.40;;
62848;SDS011;48941;49.516;8.286;2022-11-04T09:41:23;3.85;;;2.00;;
62848;SDS011;48941;49.516;8.286;2022-11-04T09:44:08;6.50;;;2.10;;
62848;SDS011;48941;49.516;8.286;2022-11-04T09:46:46;4.85;;;2.22;;
62848;SDS011;48941;49.516;8.286;2022-11-04T09:49:16;6.38;;;2.10;;
62848;SDS011;48941;49.516;8.286;2022-11-04T09:51:45;5.05;;;2.15;;
62848;SDS011;48941;49.516;8.286;2022-11-04T09:54:21;4.57;;;2.33;;
62848;SDS011;48941;49.516;8.286;2022-11-04T09:56:50;4.00;;;2.15;;
62848;SDS011;48941;49.516;8.286;2022-11-04T09:59:23;2.75;;;2.13;;
62848;SDS011;48941;49.516;8.286;2022-11-04T10:02:02;8.43;;;2.22;;
62848;SDS011;48941;49.516;8.286;2022-11-04T10:04:39;10.68;;;2.53;;
62848;SDS011;48941;49.516;8.286;2022-11-04T10:07:19;4.43;;;2.03;;
62848;SDS011;48941;49.516;8.286;2022-11-04T10:10:02;4.78;;;2.20;;
62848;SDS011;48941;49.516;8.286;2022-11-04T10:12:41;6.20;;;2.55;;
62848;SDS011;48941;49.516;8.286;2022-11-04T10:18:37;2.65;;;2.15;;
62848;SDS011;48941;49.516;8.286;2022-11-04T10:21:16;10.68;;;2.38;;
62848;SDS011;48941;49.516;8.286;2022-11-04T10:23:54;4.82;;;2.58;;
62848;SDS011;48941;49.516;8.286;2022-11-04T10:26:32;7.25;;;2.22;;
62848;SDS011;48941;49.516;8.286;2022-11-04T10:29:11;2.90;;;2.10;;
62848;SDS011;48941;49.516;8.286;2022-11-04T10:31:42;3.72;;;2.13;;
62848;SDS011;48941;49.516;8.286;2022-11-04T10:34:16;5.80;;;2.05;;
62848;SDS011;48941;49.516;8.286;2022-11-04T10:36:55;5.83;;;2.20;;
62848;SDS011;48941;49.516;8.286;2022-11-04T10:39:25;4.43;;;2.13;;
62848;SDS011;48941;49.516;8.286;2022-11-04T10:41:55;5.35;;;2.80;;
62848;SDS011;48941;49.516;8.286;2022-11-04T10:44:24;7.53;;;2.90;;
62848;SDS011;48941;49.516;8.286;2022-11-04T10:46:57;6.60;;;2.72;;
62848;SDS011;48941;49.516;8.286;2022-11-04T10:49:41;6.53;;;2.95;;
62848;SDS011;48941;49.516;8.286;2022-11-04T10:52:44;5.28;;;2.75;;
62848;SDS011;48941;49.516;8.286;2022-11-04T10:55:14;7.47;;;2.30;;
62848;SDS011;48941;49.516;8.286;2022-11-04T10:57:54;3.90;;;2.28;;
62848;SDS011;48941;49.516;8.286;2022-11-04T11:00:33;5.03;;;1.88;;
62848;SDS011;48941;49.516;8.286;2022-11-04T11:03:06;5.88;;;2.70;;
62848;SDS011;48941;49.516;8.286;2022-11-04T11:05:52;4.00;;;2.38;;
62848;SDS011;48941;49.516;8.286;2022-11-04T11:08:35;7.40;;;3.17;;
62848;SDS011;48941;49.516;8.286;2022-11-04T11:11:04;4.72;;;2.30;;
62848;SDS011;48941;49.516;8.286;2022-11-04T11:13:33;3.10;;;1.95;;
62848;SDS011;48941;49.516;8.286;2022-11-04T11:16:03;4.30;;;2.13;;
62848;SDS011;48941;49.516;8.286;2022-11-04T11:18:34;7.45;;;1.98;;
62848;SDS011;48941;49.516;8.286;2022-11-04T11:21:06;5.53;;;1.80;;
62848;SDS011;48941;49.516;8.286;2022-11-04T11:23:42;8.00;;;2.30;;
62848;SDS011;48941;49.516;8.286;2022-11-04T11:26:13;6.13;;;2.13;;
62848;SDS011;48941;49.516;8.286;2022-11-04T11:28:48;2.78;;;2.10;;
62848;SDS011;48941;49.516;8.286;2022-11-04T11:31:24;6.78;;;1.60;;
62848;SDS011;48941;49.516;8.286;2022-11-04T11:34:02;4.45;;;1.88;;
62848;SDS011;48941;49.516;8.286;2022-11-04T11:36:35;7.25;;;2.10;;
62848;SDS011;48941;49.516;8.286;2022-11-04T11:39:05;6.18;;;2.83;;
62848;SDS011;48941;49.516;8.286;2022-11-04T11:41:47;6.00;;;2.47;;
62848;SDS011;48941;49.516;8.286;2022-11-04T11:44:22;4.40;;;2.33;;
62848;SDS011;48941;49.516;8.286;2022-11-04T11:46:54;3.97;;;1.90;;
62848;SDS011;48941;49.516;8.286;2022-11-04T11:49:24;3.92;;;1.83;;
62848;SDS011;48941;49.516;8.286;2022-11-04T11:52:16;4.85;;;1.77;;
62848;SDS011;48941;49.516;8.286;2022-11-04T11:54:57;3.67;;;1.90;;
62848;SDS011;48941;49.516;8.286;2022-11-04T11:57:34;3.45;;;1.98;;
62848;SDS011;48941;49.516;8.286;2022-11-04T12:00:10;12.13;;;1.98;;
62848;SDS011;48941;49.516;8.286;2022-11-04T12:03:03;10.25;;;2.05;;
62848;SDS011;48941;49.516;8.286;2022-11-04T12:05:43;8.23;;;2.42;;
62848;SDS011;48941;49.516;8.286;2022-11-04T12:08:44;8.27;;;2.00;;
62848;SDS011;48941;49.516;8.286;2022-11-04T12:11:51;7.57;;;2.10;;
62848;SDS011;48941;49.516;8.286;2022-11-04T12:14:32;6.35;;;2.25;;
62848;SDS011;48941;49.516;8.286;2022-11-04T12:17:17;5.40;;;1.83;;
62848;SDS011;48941;49.516;8.286;2022-11-04T12:20:02;4.22;;;1.83;;
62848;SDS011;48941;49.516;8.286;2022-11-04T12:22:45;4.95;;;2.00;;
62848;SDS011;48941;49.516;8.286;2022-11-04T12:25:23;5.75;;;1.80;;
62848;SDS011;48941;49.516;8.286;2022-11-04T12:28:02;2.53;;;1.75;;
62848;SDS011;48941;49.516;8.286;2022-11-04T12:30:38;5.50;;;2.13;;
62848;SDS011;48941;49.516;8.286;2022-11-04T12:33:17;4.43;;;1.95;;
62848;SDS011;48941;49.516;8.286;2022-11-04T12:35:56;4.22;;;1.90;;
62848;SDS011;48941;49.516;8.286;2022-11-04T12:38:40;5.72;;;2.05;;
62848;SDS011;48941;49.516;8.286;2022-11-04T12:41:22;4.43;;;2.00;;
62848;SDS011;48941;49.516;8.286;2022-11-04T12:44:17;5.25;;;2.20;;
62848;SDS011;48941;49.516;8.286;2022-11-04T12:46:56;4.93;;;2.28;;
62848;SDS011;48941;49.516;8.286;2022-11-04T12:49:44;3.22;;;1.52;;
62848;SDS011;48941;49.516;8.286;2022-11-04T12:52:34;4.43;;;1.67;;
62848;SDS011;48941;49.516;8.286;2022-11-04T12:58:15;4.40;;;1.65;;
62848;SDS011;48941;49.516;8.286;2022-11-04T13:00:52;4.65;;;1.67;;
62848;SDS011;48941;49.516;8.286;2022-11-04T13:03:26;3.33;;;1.50;;
62848;SDS011;48941;49.516;8.286;2022-11-04T13:06:00;8.55;;;2.33;;
62848;SDS011;48941;49.516;8.286;2022-11-04T13:08:33;7.47;;;1.92;;
62848;SDS011;48941;49.516;8.286;2022-11-04T13:11:07;3.15;;;2.03;;
62848;SDS011;48941;49.516;8.286;2022-11-04T13:13:52;7.03;;;2.15;;
62848;SDS011;48941;49.516;8.286;2022-11-04T13:16:27;6.35;;;2.10;;
62848;SDS011;48941;49.516;8.286;2022-11-04T13:18:57;5.28;;;1.90;;
62848;SDS011;48941;49.516;8.286;2022-11-04T13:21:26;5.15;;;2.75;;
62848;SDS011;48941;49.516;8.286;2022-11-04T13:24:00;7.97;;;2.13;;
62848;SDS011;48941;49.516;8.286;2022-11-04T13:26:31;3.95;;;2.40;;
62848;SDS011;48941;49.516;8.286;2022-11-04T13:29:02;7.05;;;2.83;;
62848;SDS011;48941;49.516;8.286;2022-11-04T13:31:38;3.42;;;2.20;;
62848;SDS011;48941;49.516;8.286;2022-11-04T13:34:17;4.90;;;2.65;;
62848;SDS011;48941;49.516;8.286;2022-11-04T13:39:34;3.80;;;2.10;;
62848;SDS011;48941;49.516;8.286;2022-11-04T13:45:04;3.50;;;2.00;;
62848;SDS011;48941;49.516;8.286;2022-11-04T13:47:43;11.00;;;2.20;;
62848;SDS011;48941;49.516;8.286;2022-11-04T13:50:30;5.60;;;2.58;;
62848;SDS011;48941;49.516;8.286;2022-11-04T13:53:01;4.53;;;2.00;;
62848;SDS011;48941;49.516;8.286;2022-11-04T13:55:30;5.03;;;2.30;;
62848;SDS011;48941;49.516;8.286;2022-11-04T13:58:01;2.05;;;1.83;;
62848;SDS011;48941;49.516;8.286;2022-11-04T14:00:33;6.40;;;2.28;;
62848;SDS011;48941;49.516;8.286;2022-11-04T14:06:09;2.45;;;1.85;;
62848;SDS011;48941;49.516;8.286;2022-11-04T14:08:37;4.43;;;1.92;;
62848;SDS011;48941;49.516;8.286;2022-11-04T14:14:49;7.70;;;2.45;;
62848;SDS011;48941;49.516;8.286;2022-11-04T14:20:27;5.10;;;2.30;;
62848;SDS011;48941;49.516;8.286;2022-11-04T14:23:03;5.65;;;2.75;;
62848;SDS011;48941;49.516;8.286;2022-11-04T14:25:35;5.80;;;2.50;;
62848;SDS011;48941;49.516;8.286;2022-11-04T14:28:15;4.55;;;2.40;;
62848;SDS011;48941;49.516;8.286;2022-11-04T14:30:47;5.05;;;2.58;;
62848;SDS011;48941;49.516;8.286;2022-11-04T14:33:30;6.88;;;2.60;;
62848;SDS011;48941;49.516;8.286;2022-11-04T14:36:15;5.18;;;2.40;;
62848;SDS011;48941;49.516;8.286;2022-11-04T14:38:51;6.13;;;2.10;;
62848;SDS011;48941;49.516;8.286;2022-11-04T14:41:29;6.93;;;2.30;;
62848;SDS011;48941;49.516;8.286;2022-11-04T14:44:17;5.15;;;2.40;;
62848;SDS011;48941;49.516;8.286;2022-11-04T14:46:48;6.53;;;2.40;;
62848;SDS011;48941;49.516;8.286;2022-11-04T14:49:27;5.07;;;2.53;;
62848;SDS011;48941;49.516;8.286;2022-11-04T14:52:05;7.82;;;3.85;;
62848;SDS011;48941;49.516;8.286;2022-11-04T14:54:41;8.88;;;2.95;;
62848;SDS011;48941;49.516;8.286;2022-11-04T14:57:13;8.20;;;4.00;;
62848;SDS011;48941;49.516;8.286;2022-11-04T14:59:43;10.68;;;4.05;;
62848;SDS011;48941;49.516;8.286;2022-11-04T15:02:13;12.07;;;3.30;;
62848;SDS011;48941;49.516;8.286;2022-11-04T15:07:23;3.60;;;2.47;;
62848;SDS011;48941;49.516;8.286;2022-11-04T15:10:13;5.47;;;2.28;;
62848;SDS011;48941;49.516;8.286;2022-11-04T15:12:46;6.55;;;3.20;;
62848;SDS011;48941;49.516;8.286;2022-11-04T15:15:24;9.73;;;3.65;;
62848;SDS011;48941;49.516;8.286;2022-11-04T15:18:00;8.48;;;2.83;;
62848;SDS011;48941;49.516;8.286;2022-11-04T15:20:32;8.70;;;2.70;;
62848;SDS011;48941;49.516;8.286;2022-11-04T15:23:30;5.85;;;4.00;;
62848;SDS011;48941;49.516;8.286;2022-11-04T15:26:01;10.63;;;5.00;;
62848;SDS011;48941;49.516;8.286;2022-11-04T15:28:32;14.00;;;4.97;;
62848;SDS011;48941;49.516;8.286;2022-11-04T15:31:04;15.25;;;4.47;;
62848;SDS011;48941;49.516;8.286;2022-11-04T15:33:36;9.73;;;4.07;;
62848;SDS011;48941;49.516;8.286;2022-11-04T15:36:11;6.65;;;3.00;;
62848;SDS011;48941;49.516;8.286;2022-11-04T15:38:45;7.50;;;3.30;;
62848;SDS011;48941;49.516;8.286;2022-11-04T15:41:17;12.32;;;3.60;;
62848;SDS011;48941;49.516;8.286;2022-11-04T15:44:05;11.90;;;6.28;;
62848;SDS011;48941;49.516;8.286;2022-11-04T15:46:46;9.60;;;4.97;;
62848;SDS011;48941;49.516;8.286;2022-11-04T15:49:19;14.60;;;6.72;;
62848;SDS011;48941;49.516;8.286;2022-11-04T15:51:50;8.77;;;4.85;;
62848;SDS011;48941;49.516;8.286;2022-11-04T15:54:23;9.52;;;3.90;;
62848;SDS011;48941;49.516;8.286;2022-11-04T15:56:55;7.57;;;3.90;;